Rabbs, Texas
Current Conditions -  °F | °C
As of 5:55 PM on Monday 20 Oct 2014 (Local Time) from K66R Reporting Station
Clear Clear  
Wind Chill: 79°   Ceiling: Unl
Heat Index: 80°   Visibility: 10mi
Dew Point: 61°   Wind: 5mph
Humidity: 54%   Direction: 90°E
Pressure: 29.98"   Gusts: NA
Location:  29.3984°N, 96.8256°W
Report Text: K66R 202255Z AUTO 09004KT 10SM CLR 26/16 A2998 RMK AO2 T02610162
Loading
Personal Weather Stations






























Interactive Weather Map
Tropical Storm Tracking
New forecast layout! Learn more

10-Day Weather Forecast

Advertisements
Track Severe Weather on mobile